sensor_id;sensor_type;location;lat;lon;timestamp;temperature;humidity
61912;DHT22;49973;52.084;5.412;2022-10-23T00:01:23;11.50;99.90
61912;DHT22;49973;52.084;5.412;2022-10-23T00:03:56;11.40;99.90
61912;DHT22;49973;52.084;5.412;2022-10-23T00:06:26;11.40;99.90
61912;DHT22;49973;52.084;5.412;2022-10-23T00:08:55;11.30;99.90
61912;DHT22;49973;52.084;5.412;2022-10-23T00:11:27;11.30;99.90
61912;DHT22;49973;52.084;5.412;2022-10-23T00:13:57;11.30;99.90
61912;DHT22;49973;52.084;5.412;2022-10-23T00:16:27;11.30;99.90
61912;DHT22;49973;52.084;5.412;2022-10-23T00:18:57;11.20;99.90
61912;DHT22;49973;52.084;5.412;2022-10-23T00:21:26;11.20;99.90
61912;DHT22;49973;52.084;5.412;2022-10-23T00:23:54;11.20;99.90
61912;DHT22;49973;52.084;5.412;2022-10-23T00:26:23;11.20;99.90
61912;DHT22;49973;52.084;5.412;2022-10-23T00:28:53;11.20;99.90
61912;DHT22;49973;52.084;5.412;2022-10-23T00:31:22;11.20;99.90
61912;DHT22;49973;52.084;5.412;2022-10-23T00:33:52;11.10;99.90
61912;DHT22;49973;52.084;5.412;2022-10-23T00:36:22;11.10;99.90
61912;DHT22;49973;52.084;5.412;2022-10-23T00:38:50;11.10;99.90
61912;DHT22;49973;52.084;5.412;2022-10-23T00:41:22;11.00;99.90
61912;DHT22;49973;52.084;5.412;2022-10-23T00:43:57;11.00;99.90
61912;DHT22;49973;52.084;5.412;2022-10-23T00:46:26;11.00;99.90
61912;DHT22;49973;52.084;5.412;2022-10-23T00:48:56;11.00;99.90
61912;DHT22;49973;52.084;5.412;2022-10-23T00:51:30;11.00;99.90
61912;DHT22;49973;52.084;5.412;2022-10-23T00:54:01;11.00;99.90
61912;DHT22;49973;52.084;5.412;2022-10-23T00:56:51;11.00;99.90
61912;DHT22;49973;52.084;5.412;2022-10-23T00:59:21;11.00;99.90
61912;DHT22;49973;52.084;5.412;2022-10-23T01:01:50;11.00;99.90
61912;DHT22;49973;52.084;5.412;2022-10-23T01:04:19;11.30;99.90
61912;DHT22;49973;52.084;5.412;2022-10-23T01:06:56;11.00;99.90
61912;DHT22;49973;52.084;5.412;2022-10-23T01:09:30;11.00;99.90
61912;DHT22;49973;52.084;5.412;2022-10-23T01:12:08;11.00;99.90
61912;DHT22;49973;52.084;5.412;2022-10-23T01:14:42;11.00;99.90
61912;DHT22;49973;52.084;5.412;2022-10-23T01:17:19;11.00;99.90
61912;DHT22;49973;52.084;5.412;2022-10-23T01:19:57;11.10;99.90
61912;DHT22;49973;52.084;5.412;2022-10-23T01:22:45;10.90;99.90
61912;DHT22;49973;52.084;5.412;2022-10-23T01:25:26;10.90;99.90
61912;DHT22;49973;52.084;5.412;2022-10-23T01:28:01;10.90;99.90
61912;DHT22;49973;52.084;5.412;2022-10-23T01:30:32;10.90;99.90
61912;DHT22;49973;52.084;5.412;2022-10-23T01:33:04;10.80;99.90
61912;DHT22;49973;52.084;5.412;2022-10-23T01:35:45;10.80;99.90
61912;DHT22;49973;52.084;5.412;2022-10-23T01:38:19;10.80;99.90
61912;DHT22;49973;52.084;5.412;2022-10-23T01:40:56;10.80;99.90
61912;DHT22;49973;52.084;5.412;2022-10-23T01:43:33;10.80;99.90
61912;DHT22;49973;52.084;5.412;2022-10-23T01:46:07;10.70;99.90
61912;DHT22;49973;52.084;5.412;2022-10-23T01:48:40;10.70;99.90
61912;DHT22;49973;52.084;5.412;2022-10-23T01:51:11;10.70;99.90
61912;DHT22;49973;52.084;5.412;2022-10-23T01:53:42;10.70;99.90
61912;DHT22;49973;52.084;5.412;2022-10-23T01:56:15;10.70;99.90
61912;DHT22;49973;52.084;5.412;2022-10-23T01:58:50;10.70;99.90
61912;DHT22;49973;52.084;5.412;2022-10-23T02:01:22;10.80;99.90
61912;DHT22;49973;52.084;5.412;2022-10-23T02:03:54;10.80;99.90
61912;DHT22;49973;52.084;5.412;2022-10-23T02:06:24;10.70;99.90
61912;DHT22;49973;52.084;5.412;2022-10-23T02:08:53;10.60;99.90
61912;DHT22;49973;52.084;5.412;2022-10-23T02:11:21;10.60;99.90
61912;DHT22;49973;52.084;5.412;2022-10-23T02:13:56;10.60;99.90
61912;DHT22;49973;52.084;5.412;2022-10-23T02:16:33;10.60;99.90
61912;DHT22;49973;52.084;5.412;2022-10-23T02:19:11;10.60;99.90
61912;DHT22;49973;52.084;5.412;2022-10-23T02:21:49;10.60;99.90
61912;DHT22;49973;52.084;5.412;2022-10-23T02:24:23;10.60;99.90
61912;DHT22;49973;52.084;5.412;2022-10-23T02:26:54;10.80;99.90
61912;DHT22;49973;52.084;5.412;2022-10-23T02:29:28;10.50;99.90
61912;DHT22;49973;52.084;5.412;2022-10-23T02:31:59;10.50;99.90
61912;DHT22;49973;52.084;5.412;2022-10-23T02:34:28;10.50;99.90
61912;DHT22;49973;52.084;5.412;2022-10-23T02:36:57;10.50;99.90
61912;DHT22;49973;52.084;5.412;2022-10-23T02:39:26;10.40;99.90
61912;DHT22;49973;52.084;5.412;2022-10-23T02:42:00;10.60;99.90
61912;DHT22;49973;52.084;5.412;2022-10-23T02:44:41;10.40;99.90
61912;DHT22;49973;52.084;5.412;2022-10-23T02:47:20;10.40;99.90
61912;DHT22;49973;52.084;5.412;2022-10-23T02:50:02;10.60;99.90
61912;DHT22;49973;52.084;5.412;2022-10-23T02:52:38;10.40;99.90
61912;DHT22;49973;52.084;5.412;2022-10-23T02:55:16;10.40;99.90
61912;DHT22;49973;52.084;5.412;2022-10-23T02:57:52;10.40;99.90
61912;DHT22;49973;52.084;5.412;2022-10-23T03:00:23;10.50;99.90
61912;DHT22;49973;52.084;5.412;2022-10-23T03:02:55;10.40;99.90
61912;DHT22;49973;52.084;5.412;2022-10-23T03:05:30;10.40;99.90
61912;DHT22;49973;52.084;5.412;2022-10-23T03:08:01;10.50;99.90
61912;DHT22;49973;52.084;5.412;2022-10-23T03:10:30;10.40;99.90
61912;DHT22;49973;52.084;5.412;2022-10-23T03:12:59;10.40;99.90
61912;DHT22;49973;52.084;5.412;2022-10-23T03:15:34;10.40;99.90
61912;DHT22;49973;52.084;5.412;2022-10-23T03:18:03;10.60;99.90
61912;DHT22;49973;52.084;5.412;2022-10-23T03:20:32;10.40;99.90
61912;DHT22;49973;52.084;5.412;2022-10-23T03:23:01;10.40;99.90
61912;DHT22;49973;52.084;5.412;2022-10-23T03:25:29;10.40;99.90
61912;DHT22;49973;52.084;5.412;2022-10-23T03:27:58;10.30;99.90
61912;DHT22;49973;52.084;5.412;2022-10-23T03:30:27;10.30;99.90
61912;DHT22;49973;52.084;5.412;2022-10-23T03:32:57;10.50;99.90
61912;DHT22;49973;52.084;5.412;2022-10-23T03:35:26;10.30;99.90
61912;DHT22;49973;52.084;5.412;2022-10-23T03:37:54;10.40;99.90
61912;DHT22;49973;52.084;5.412;2022-10-23T03:40:25;10.40;99.90
61912;DHT22;49973;52.084;5.412;2022-10-23T03:42:53;10.40;99.90
61912;DHT22;49973;52.084;5.412;2022-10-23T03:45:22;10.50;99.90
61912;DHT22;49973;52.084;5.412;2022-10-23T03:47:50;10.40;99.90
61912;DHT22;49973;52.084;5.412;2022-10-23T03:50:20;10.50;99.90
61912;DHT22;49973;52.084;5.412;2022-10-23T03:52:49;10.70;99.90
61912;DHT22;49973;52.084;5.412;2022-10-23T03:55:18;10.50;99.90
61912;DHT22;49973;52.084;5.412;2022-10-23T03:57:46;10.50;99.90
61912;DHT22;49973;52.084;5.412;2022-10-23T04:00:19;10.50;99.90
61912;DHT22;49973;52.084;5.412;2022-10-23T04:02:47;10.50;99.90
61912;DHT22;49973;52.084;5.412;2022-10-23T04:05:16;10.60;99.90
61912;DHT22;49973;52.084;5.412;2022-10-23T04:07:54;10.50;99.90
61912;DHT22;49973;52.084;5.412;2022-10-23T04:10:23;10.50;99.90
61912;DHT22;49973;52.084;5.412;2022-10-23T04:12:51;10.50;99.90
61912;DHT22;49973;52.084;5.412;2022-10-23T04:15:20;10.60;99.90
61912;DHT22;49973;52.084;5.412;2022-10-23T04:17:48;10.60;99.90
61912;DHT22;49973;52.084;5.412;2022-10-23T04:20:19;10.60;99.90
61912;DHT22;49973;52.084;5.412;2022-10-23T04:22:47;10.60;99.90
61912;DHT22;49973;52.084;5.412;2022-10-23T04:25:17;10.60;99.90
61912;DHT22;49973;52.084;5.412;2022-10-23T04:27:45;10.60;99.90
61912;DHT22;49973;52.084;5.412;2022-10-23T04:30:14;10.70;99.90
61912;DHT22;49973;52.084;5.412;2022-10-23T04:32:45;10.70;99.90
61912;DHT22;49973;52.084;5.412;2022-10-23T04:35:14;10.70;99.90
61912;DHT22;49973;52.084;5.412;2022-10-23T04:37:44;10.70;99.90
61912;DHT22;49973;52.084;5.412;2022-10-23T04:40:12;10.80;99.90
61912;DHT22;49973;52.084;5.412;2022-10-23T04:42:42;10.80;99.90
61912;DHT22;49973;52.084;5.412;2022-10-23T04:45:12;10.80;99.90
61912;DHT22;49973;52.084;5.412;2022-10-23T04:47:41;10.80;99.90
61912;DHT22;49973;52.084;5.412;2022-10-23T04:50:10;10.90;99.90
61912;DHT22;49973;52.084;5.412;2022-10-23T04:52:57;11.10;99.90
61912;DHT22;49973;52.084;5.412;2022-10-23T04:55:48;10.90;99.90
61912;DHT22;49973;52.084;5.412;2022-10-23T04:58:24;10.90;99.90
61912;DHT22;49973;52.084;5.412;2022-10-23T05:00:56;11.00;99.90
61912;DHT22;49973;52.084;5.412;2022-10-23T05:03:26;11.00;99.90
61912;DHT22;49973;52.084;5.412;2022-10-23T05:05:55;11.30;99.90
61912;DHT22;49973;52.084;5.412;2022-10-23T05:08:44;11.10;99.90
61912;DHT22;49973;52.084;5.412;2022-10-23T05:11:21;11.10;99.90
61912;DHT22;49973;52.084;5.412;2022-10-23T05:13:52;11.20;99.90
61912;DHT22;49973;52.084;5.412;2022-10-23T05:16:27;11.20;99.90
61912;DHT22;49973;52.084;5.412;2022-10-23T05:18:59;11.20;99.90
61912;DHT22;49973;52.084;5.412;2022-10-23T05:21:29;11.30;99.90
61912;DHT22;49973;52.084;5.412;2022-10-23T05:23:59;11.40;99.90
61912;DHT22;49973;52.084;5.412;2022-10-23T05:26:30;11.60;99.90
61912;DHT22;49973;52.084;5.412;2022-10-23T05:29:05;11.50;99.90
61912;DHT22;49973;52.084;5.412;2022-10-23T05:31:34;11.60;99.90
61912;DHT22;49973;52.084;5.412;2022-10-23T05:34:10;12.00;99.90
61912;DHT22;49973;52.084;5.412;2022-10-23T05:36:43;11.80;99.90
61912;DHT22;49973;52.084;5.412;2022-10-23T05:39:13;11.90;99.90
61912;DHT22;49973;52.084;5.412;2022-10-23T05:41:42;12.00;99.90
61912;DHT22;49973;52.084;5.412;2022-10-23T05:44:12;12.00;99.90
61912;DHT22;49973;52.084;5.412;2022-10-23T05:46:59;12.10;99.90
61912;DHT22;49973;52.084;5.412;2022-10-23T05:49:46;12.20;99.90
61912;DHT22;49973;52.084;5.412;2022-10-23T05:52:28;12.30;99.90
61912;DHT22;49973;52.084;5.412;2022-10-23T05:55:28;12.30;99.90
61912;DHT22;49973;52.084;5.412;2022-10-23T05:58:26;12.40;99.90
61912;DHT22;49973;52.084;5.412;2022-10-23T06:01:08;12.40;99.90
61912;DHT22;49973;52.084;5.412;2022-10-23T06:03:52;12.50;99.90
61912;DHT22;49973;52.084;5.412;2022-10-23T06:06:25;12.50;99.90
61912;DHT22;49973;52.084;5.412;2022-10-23T06:08:54;12.50;99.90
61912;DHT22;49973;52.084;5.412;2022-10-23T06:11:23;12.60;99.90
61912;DHT22;49973;52.084;5.412;2022-10-23T06:13:59;12.60;99.90
61912;DHT22;49973;52.084;5.412;2022-10-23T06:16:29;12.50;99.90
61912;DHT22;49973;52.084;5.412;2022-10-23T06:18:57;12.60;99.90
61912;DHT22;49973;52.084;5.412;2022-10-23T06:21:26;12.60;99.90
61912;DHT22;49973;52.084;5.412;2022-10-23T06:23:55;12.60;99.90
61912;DHT22;49973;52.084;5.412;2022-10-23T06:26:36;12.60;99.90
61912;DHT22;49973;52.084;5.412;2022-10-23T06:29:10;12.70;99.90
61912;DHT22;49973;52.084;5.412;2022-10-23T06:31:42;12.70;99.90
61912;DHT22;49973;52.084;5.412;2022-10-23T06:34:12;12.60;99.90
61912;DHT22;49973;52.084;5.412;2022-10-23T06:36:41;12.60;99.90
61912;DHT22;49973;52.084;5.412;2022-10-23T06:39:25;12.60;99.90
61912;DHT22;49973;52.084;5.412;2022-10-23T06:42:07;12.60;99.90
61912;DHT22;49973;52.084;5.412;2022-10-23T06:44:54;12.60;99.90
61912;DHT22;49973;52.084;5.412;2022-10-23T06:47:53;12.70;99.90
61912;DHT22;49973;52.084;5.412;2022-10-23T06:51:04;12.70;99.90
61912;DHT22;49973;52.084;5.412;2022-10-23T06:53:40;12.70;99.90
61912;DHT22;49973;52.084;5.412;2022-10-23T06:56:31;12.70;99.90
61912;DHT22;49973;52.084;5.412;2022-10-23T06:59:04;12.70;99.90
61912;DHT22;49973;52.084;5.412;2022-10-23T07:01:35;12.70;99.90
61912;DHT22;49973;52.084;5.412;2022-10-23T07:04:07;12.80;99.90
61912;DHT22;49973;52.084;5.412;2022-10-23T07:06:35;12.80;99.90
61912;DHT22;49973;52.084;5.412;2022-10-23T07:09:04;12.80;99.90
61912;DHT22;49973;52.084;5.412;2022-10-23T07:11:50;12.80;99.90
61912;DHT22;49973;52.084;5.412;2022-10-23T07:14:24;12.90;99.90
61912;DHT22;49973;52.084;5.412;2022-10-23T07:16:53;12.90;99.90
61912;DHT22;49973;52.084;5.412;2022-10-23T07:19:25;13.30;99.90
61912;DHT22;49973;52.084;5.412;2022-10-23T07:21:59;13.00;99.90
61912;DHT22;49973;52.084;5.412;2022-10-23T07:24:33;13.30;99.90
61912;DHT22;49973;52.084;5.412;2022-10-23T07:27:13;13.10;99.90
61912;DHT22;49973;52.084;5.412;2022-10-23T07:29:42;13.10;99.90
61912;DHT22;49973;52.084;5.412;2022-10-23T07:32:11;13.20;99.90
61912;DHT22;49973;52.084;5.412;2022-10-23T07:34:41;13.40;99.90
61912;DHT22;49973;52.084;5.412;2022-10-23T07:37:24;13.30;99.90
61912;DHT22;49973;52.084;5.412;2022-10-23T07:39:52;13.40;99.90
61912;DHT22;49973;52.084;5.412;2022-10-23T07:42:22;13.40;99.90
61912;DHT22;49973;52.084;5.412;2022-10-23T07:44:51;13.50;99.90
61912;DHT22;49973;52.084;5.412;2022-10-23T07:47:20;13.60;99.90
61912;DHT22;49973;52.084;5.412;2022-10-23T07:49:52;13.60;99.90
61912;DHT22;49973;52.084;5.412;2022-10-23T07:52:20;13.70;99.90
61912;DHT22;49973;52.084;5.412;2022-10-23T07:55:15;13.70;99.90
61912;DHT22;49973;52.084;5.412;2022-10-23T07:58:00;13.80;99.90
61912;DHT22;49973;52.084;5.412;2022-10-23T08:00:54;13.90;99.90
61912;DHT22;49973;52.084;5.412;2022-10-23T08:03:32;13.90;99.90
61912;DHT22;49973;52.084;5.412;2022-10-23T08:06:03;14.00;99.90
61912;DHT22;49973;52.084;5.412;2022-10-23T08:08:33;14.00;99.90
61912;DHT22;49973;52.084;5.412;2022-10-23T08:11:04;14.10;99.90
61912;DHT22;49973;52.084;5.412;2022-10-23T08:13:44;14.10;99.90
61912;DHT22;49973;52.084;5.412;2022-10-23T08:16:13;14.20;99.90
61912;DHT22;49973;52.084;5.412;2022-10-23T08:19:00;14.30;99.90
61912;DHT22;49973;52.084;5.412;2022-10-23T08:21:30;14.30;99.90
61912;DHT22;49973;52.084;5.412;2022-10-23T08:24:00;14.40;99.90
61912;DHT22;49973;52.084;5.412;2022-10-23T08:26:29;14.40;99.90
61912;DHT22;49973;52.084;5.412;2022-10-23T08:28:58;14.50;99.90
61912;DHT22;49973;52.084;5.412;2022-10-23T08:31:27;14.50;99.90
61912;DHT22;49973;52.084;5.412;2022-10-23T08:34:13;14.50;99.90
61912;DHT22;49973;52.084;5.412;2022-10-23T08:36:45;14.60;99.90
61912;DHT22;49973;52.084;5.412;2022-10-23T08:39:14;14.60;99.90
61912;DHT22;49973;52.084;5.412;2022-10-23T08:42:18;14.70;99.90
61912;DHT22;49973;52.084;5.412;2022-10-23T08:44:58;14.70;99.90
61912;DHT22;49973;52.084;5.412;2022-10-23T08:47:35;14.80;99.90
61912;DHT22;49973;52.084;5.412;2022-10-23T08:50:31;14.80;99.90
61912;DHT22;49973;52.084;5.412;2022-10-23T08:53:08;14.90;99.90
61912;DHT22;49973;52.084;5.412;2022-10-23T08:55:42;15.00;99.90
61912;DHT22;49973;52.084;5.412;2022-10-23T08:58:15;15.00;99.90
61912;DHT22;49973;52.084;5.412;2022-10-23T09:00:46;15.80;99.90
61912;DHT22;49973;52.084;5.412;2022-10-23T09:03:17;15.10;99.90
61912;DHT22;49973;52.084;5.412;2022-10-23T09:05:54;15.20;99.90
61912;DHT22;49973;52.084;5.412;2022-10-23T09:08:34;15.30;99.90
61912;DHT22;49973;52.084;5.412;2022-10-23T09:11:10;15.40;99.90
61912;DHT22;49973;52.084;5.412;2022-10-23T09:13:59;15.40;99.90
61912;DHT22;49973;52.084;5.412;2022-10-23T09:16:42;15.50;99.90
61912;DHT22;49973;52.084;5.412;2022-10-23T09:19:16;15.60;99.90
61912;DHT22;49973;52.084;5.412;2022-10-23T09:21:47;15.60;99.90
61912;DHT22;49973;52.084;5.412;2022-10-23T09:24:20;15.60;99.90
61912;DHT22;49973;52.084;5.412;2022-10-23T09:26:50;15.60;99.90
61912;DHT22;49973;52.084;5.412;2022-10-23T09:29:25;15.60;99.90
61912;DHT22;49973;52.084;5.412;2022-10-23T09:31:55;15.60;99.90
61912;DHT22;49973;52.084;5.412;2022-10-23T09:34:25;15.60;99.90
61912;DHT22;49973;52.084;5.412;2022-10-23T09:36:56;15.60;99.90
61912;DHT22;49973;52.084;5.412;2022-10-23T09:39:28;15.70;99.90
61912;DHT22;49973;52.084;5.412;2022-10-23T09:41:57;15.60;99.90
61912;DHT22;49973;52.084;5.412;2022-10-23T09:44:27;15.60;99.90
61912;DHT22;49973;52.084;5.412;2022-10-23T09:46:59;15.80;99.90
61912;DHT22;49973;52.084;5.412;2022-10-23T09:49:30;15.60;99.90
61912;DHT22;49973;52.084;5.412;2022-10-23T09:52:01;15.60;99.90
61912;DHT22;49973;52.084;5.412;2022-10-23T09:54:35;15.60;99.90
61912;DHT22;49973;52.084;5.412;2022-10-23T09:57:14;15.60;99.90
61912;DHT22;49973;52.084;5.412;2022-10-23T09:59:50;15.60;99.90
61912;DHT22;49973;52.084;5.412;2022-10-23T10:02:26;15.60;99.90
61912;DHT22;49973;52.084;5.412;2022-10-23T10:05:23;15.60;99.90
61912;DHT22;49973;52.084;5.412;2022-10-23T10:07:55;15.70;99.90
61912;DHT22;49973;52.084;5.412;2022-10-23T10:10:28;15.70;99.90
61912;DHT22;49973;52.084;5.412;2022-10-23T10:13:07;15.80;99.90
61912;DHT22;49973;52.084;5.412;2022-10-23T10:15:47;15.80;99.90
61912;DHT22;49973;52.084;5.412;2022-10-23T10:18:25;15.80;99.90
61912;DHT22;49973;52.084;5.412;2022-10-23T10:21:09;16.10;99.90
61912;DHT22;49973;52.084;5.412;2022-10-23T10:23:45;15.90;99.90
61912;DHT22;49973;52.084;5.412;2022-10-23T10:26:26;15.90;99.90
61912;DHT22;49973;52.084;5.412;2022-10-23T10:29:04;16.00;99.90
61912;DHT22;49973;52.084;5.412;2022-10-23T10:31:47;16.00;99.90
61912;DHT22;49973;52.084;5.412;2022-10-23T10:34:26;16.00;99.90
61912;DHT22;49973;52.084;5.412;2022-10-23T10:36:59;16.10;99.90
61912;DHT22;49973;52.084;5.412;2022-10-23T10:39:36;16.10;99.90
61912;DHT22;49973;52.084;5.412;2022-10-23T10:42:22;16.20;99.90
61912;DHT22;49973;52.084;5.412;2022-10-23T10:45:06;16.20;99.90
61912;DHT22;49973;52.084;5.412;2022-10-23T10:47:48;16.20;99.90
61912;DHT22;49973;52.084;5.412;2022-10-23T10:50:30;16.20;99.90
61912;DHT22;49973;52.084;5.412;2022-10-23T10:53:22;16.30;99.90
61912;DHT22;49973;52.084;5.412;2022-10-23T10:55:53;16.30;99.90
61912;DHT22;49973;52.084;5.412;2022-10-23T10:58:37;16.50;99.90
61912;DHT22;49973;52.084;5.412;2022-10-23T11:01:13;16.50;99.90
61912;DHT22;49973;52.084;5.412;2022-10-23T11:03:48;16.50;99.90
61912;DHT22;49973;52.084;5.412;2022-10-23T11:06:21;16.60;99.90
61912;DHT22;49973;52.084;5.412;2022-10-23T11:08:50;16.70;99.90
61912;DHT22;49973;52.084;5.412;2022-10-23T11:11:37;16.70;99.90
61912;DHT22;49973;52.084;5.412;2022-10-23T11:14:14;16.80;99.90
61912;DHT22;49973;52.084;5.412;2022-10-23T11:16:46;16.80;99.90
61912;DHT22;49973;52.084;5.412;2022-10-23T11:19:20;16.90;99.90
61912;DHT22;49973;52.084;5.412;2022-10-23T11:21:55;17.00;99.90
61912;DHT22;49973;52.084;5.412;2022-10-23T11:30:41;17.10;99.90
61912;DHT22;49973;52.084;5.412;2022-10-23T11:33:37;17.20;99.90
61912;DHT22;49973;52.084;5.412;2022-10-23T11:36:14;17.20;99.90
61912;DHT22;49973;52.084;5.412;2022-10-23T11:38:46;17.40;99.90
61912;DHT22;49973;52.084;5.412;2022-10-23T11:41:20;17.40;99.90
61912;DHT22;49973;52.084;5.412;2022-10-23T11:43:55;17.70;99.90
61912;DHT22;49973;52.084;5.412;2022-10-23T11:46:31;17.60;99.90
61912;DHT22;49973;52.084;5.412;2022-10-23T11:49:00;17.90;99.90
61912;DHT22;49973;52.084;5.412;2022-10-23T11:51:33;17.90;99.90
61912;DHT22;49973;52.084;5.412;2022-10-23T11:54:18;18.10;99.90
61912;DHT22;49973;52.084;5.412;2022-10-23T11:56:53;18.10;99.90
61912;DHT22;49973;52.084;5.412;2022-10-23T11:59:26;18.10;99.90
61912;DHT22;49973;52.084;5.412;2022-10-23T12:01:58;18.20;99.90
61912;DHT22;49973;52.084;5.412;2022-10-23T12:04:33;18.20;99.90
61912;DHT22;49973;52.084;5.412;2022-10-23T12:07:15;18.30;99.90
61912;DHT22;49973;52.084;5.412;2022-10-23T12:09:51;18.40;99.90
61912;DHT22;49973;52.084;5.412;2022-10-23T12:12:28;18.40;99.90
61912;DHT22;49973;52.084;5.412;2022-10-23T12:15:19;18.50;99.90
61912;DHT22;49973;52.084;5.412;2022-10-23T12:17:51;18.50;99.90
61912;DHT22;49973;52.084;5.412;2022-10-23T12:20:29;18.50;99.90
61912;DHT22;49973;52.084;5.412;2022-10-23T12:23:20;18.40;99.90
61912;DHT22;49973;52.084;5.412;2022-10-23T12:26:15;18.50;99.90
61912;DHT22;49973;52.084;5.412;2022-10-23T12:28:49;18.50;99.90
61912;DHT22;49973;52.084;5.412;2022-10-23T12:31:30;18.50;99.90
61912;DHT22;49973;52.084;5.412;2022-10-23T12:34:14;18.60;99.90
61912;DHT22;49973;52.084;5.412;2022-10-23T12:36:59;18.60;99.90
61912;DHT22;49973;52.084;5.412;2022-10-23T12:39:32;18.70;99.90
61912;DHT22;49973;52.084;5.412;2022-10-23T12:42:03;18.60;99.90
61912;DHT22;49973;52.084;5.412;2022-10-23T12:44:32;18.70;99.90
61912;DHT22;49973;52.084;5.412;2022-10-23T12:47:02;18.80;99.90
61912;DHT22;49973;52.084;5.412;2022-10-23T12:49:32;18.70;99.90
61912;DHT22;49973;52.084;5.412;2022-10-23T12:52:03;18.70;99.90
61912;DHT22;49973;52.084;5.412;2022-10-23T12:54:37;18.90;99.90
61912;DHT22;49973;52.084;5.412;2022-10-23T12:57:18;18.80;99.90
61912;DHT22;49973;52.084;5.412;2022-10-23T12:59:46;18.80;99.90
61912;DHT22;49973;52.084;5.412;2022-10-23T13:02:22;18.90;99.90
61912;DHT22;49973;52.084;5.412;2022-10-23T13:04:54;19.00;99.90
61912;DHT22;49973;52.084;5.412;2022-10-23T13:07:25;18.90;99.90
61912;DHT22;49973;52.084;5.412;2022-10-23T13:09:58;19.00;99.90
61912;DHT22;49973;52.084;5.412;2022-10-23T13:12:51;19.00;99.90
61912;DHT22;49973;52.084;5.412;2022-10-23T13:15:21;19.00;99.90
61912;DHT22;49973;52.084;5.412;2022-10-23T13:18:01;19.00;99.90
61912;DHT22;49973;52.084;5.412;2022-10-23T13:20:33;19.00;99.90
61912;DHT22;49973;52.084;5.412;2022-10-23T13:23:10;19.00;99.90
61912;DHT22;49973;52.084;5.412;2022-10-23T13:25:39;19.00;99.90
61912;DHT22;49973;52.084;5.412;2022-10-23T13:28:19;19.00;99.90
61912;DHT22;49973;52.084;5.412;2022-10-23T13:31:04;19.00;99.90
61912;DHT22;49973;52.084;5.412;2022-10-23T13:33:35;19.00;99.90
61912;DHT22;49973;52.084;5.412;2022-10-23T13:36:19;19.00;99.90
61912;DHT22;49973;52.084;5.412;2022-10-23T13:39:00;19.00;99.90
61912;DHT22;49973;52.084;5.412;2022-10-23T13:41:34;19.00;99.90
61912;DHT22;49973;52.084;5.412;2022-10-23T13:44:03;19.00;99.90
61912;DHT22;49973;52.084;5.412;2022-10-23T13:46:32;19.00;99.90
61912;DHT22;49973;52.084;5.412;2022-10-23T13:49:00;19.00;99.90
61912;DHT22;49973;52.084;5.412;2022-10-23T13:51:33;19.10;99.90
61912;DHT22;49973;52.084;5.412;2022-10-23T13:54:13;19.10;99.90
61912;DHT22;49973;52.084;5.412;2022-10-23T13:56:42;19.10;99.90
61912;DHT22;49973;52.084;5.412;2022-10-23T13:59:11;19.10;99.90
61912;DHT22;49973;52.084;5.412;2022-10-23T14:01:40;19.10;99.90
61912;DHT22;49973;52.084;5.412;2022-10-23T14:04:12;19.10;99.90
61912;DHT22;49973;52.084;5.412;2022-10-23T14:06:42;19.10;99.90
61912;DHT22;49973;52.084;5.412;2022-10-23T14:09:13;19.20;99.90
61912;DHT22;49973;52.084;5.412;2022-10-23T14:11:42;19.10;99.90
61912;DHT22;49973;52.084;5.412;2022-10-23T14:14:11;19.20;99.90
61912;DHT22;49973;52.084;5.412;2022-10-23T14:16:39;19.10;99.90
61912;DHT22;49973;52.084;5.412;2022-10-23T14:19:08;19.10;99.90
61912;DHT22;49973;52.084;5.412;2022-10-23T14:21:37;19.10;99.90
61912;DHT22;49973;52.084;5.412;2022-10-23T14:24:07;19.10;99.90
61912;DHT22;49973;52.084;5.412;2022-10-23T14:26:36;19.10;99.90
61912;DHT22;49973;52.084;5.412;2022-10-23T14:29:04;19.10;99.90
61912;DHT22;49973;52.084;5.412;2022-10-23T14:31:40;19.20;99.90
61912;DHT22;49973;52.084;5.412;2022-10-23T14:34:08;19.20;99.90
61912;DHT22;49973;52.084;5.412;2022-10-23T14:36:36;19.20;99.90
61912;DHT22;49973;52.084;5.412;2022-10-23T14:39:18;19.30;99.90
61912;DHT22;49973;52.084;5.412;2022-10-23T14:41:47;19.30;99.90
61912;DHT22;49973;52.084;5.412;2022-10-23T14:44:15;19.30;99.90
61912;DHT22;49973;52.084;5.412;2022-10-23T14:46:44;19.30;99.90
61912;DHT22;49973;52.084;5.412;2022-10-23T14:49:12;19.20;99.90
61912;DHT22;49973;52.084;5.412;2022-10-23T14:51:40;19.20;99.90
61912;DHT22;49973;52.084;5.412;2022-10-23T14:54:09;19.10;99.90
61912;DHT22;49973;52.084;5.412;2022-10-23T14:56:39;19.10;99.90
61912;DHT22;49973;52.084;5.412;2022-10-23T14:59:07;19.00;99.90
61912;DHT22;49973;52.084;5.412;2022-10-23T15:01:39;19.00;99.90
61912;DHT22;49973;52.084;5.412;2022-10-23T15:04:13;19.00;99.90
61912;DHT22;49973;52.084;5.412;2022-10-23T15:06:42;19.20;99.90
61912;DHT22;49973;52.084;5.412;2022-10-23T15:09:12;18.90;99.90
61912;DHT22;49973;52.084;5.412;2022-10-23T15:11:42;18.90;99.90
61912;DHT22;49973;52.084;5.412;2022-10-23T15:14:10;18.70;99.90
61912;DHT22;49973;52.084;5.412;2022-10-23T15:16:39;19.00;99.90
61912;DHT22;49973;52.084;5.412;2022-10-23T15:19:09;18.70;99.90
61912;DHT22;49973;52.084;5.412;2022-10-23T15:21:45;18.70;99.90
61912;DHT22;49973;52.084;5.412;2022-10-23T15:24:13;18.70;99.90
61912;DHT22;49973;52.084;5.412;2022-10-23T15:26:43;18.60;99.90
61912;DHT22;49973;52.084;5.412;2022-10-23T15:29:12;18.50;99.90
61912;DHT22;49973;52.084;5.412;2022-10-23T15:31:43;18.50;99.90
61912;DHT22;49973;52.084;5.412;2022-10-23T15:34:13;18.50;99.90
61912;DHT22;49973;52.084;5.412;2022-10-23T15:36:42;18.40;99.90
61912;DHT22;49973;52.084;5.412;2022-10-23T15:39:12;18.30;99.90
61912;DHT22;49973;52.084;5.412;2022-10-23T15:41:43;18.50;99.90
61912;DHT22;49973;52.084;5.412;2022-10-23T15:44:14;18.30;99.90
61912;DHT22;49973;52.084;5.412;2022-10-23T15:46:43;18.30;99.90
61912;DHT22;49973;52.084;5.412;2022-10-23T15:49:11;18.30;99.90
61912;DHT22;49973;52.084;5.412;2022-10-23T15:51:41;18.30;99.90
61912;DHT22;49973;52.084;5.412;2022-10-23T15:54:12;18.30;99.90
61912;DHT22;49973;52.084;5.412;2022-10-23T15:56:44;18.40;99.90
61912;DHT22;49973;52.084;5.412;2022-10-23T15:59:13;18.40;99.90
61912;DHT22;49973;52.084;5.412;2022-10-23T16:01:42;18.20;99.90
61912;DHT22;49973;52.084;5.412;2022-10-23T16:04:10;18.20;99.90
61912;DHT22;49973;52.084;5.412;2022-10-23T16:06:39;18.20;99.90
61912;DHT22;49973;52.084;5.412;2022-10-23T16:09:07;18.30;99.90
61912;DHT22;49973;52.084;5.412;2022-10-23T16:11:38;18.10;99.90
61912;DHT22;49973;52.084;5.412;2022-10-23T16:14:11;18.20;99.90
61912;DHT22;49973;52.084;5.412;2022-10-23T16:16:40;18.20;99.90
61912;DHT22;49973;52.084;5.412;2022-10-23T16:19:10;18.20;99.90